Covert, MI (49043)

7:37 AM EST on February 28, 2015 (GMT -0500)
South Haven | Change Station
CLOSE
Current Station
Airport
Location: South Haven,
Elevation: 666 ft
Nearby Weather Stations

Elev 666 ft 42.35 °N, 86.26 °W | Updated 22 minutes ago

Clear
Clear
-2 °F
Feels Like -2 °F
N
0
Wind Variable Wind from North

Today
High -- | Low -- °F
--% Chance of Precip.
Yesterday
High -- | Low -- °F
Precip. -- in
7:22 AM 6:33 PM
Waxing Gibbous, 77% visible
Pressure 30.69 in
Visibility 10.0 miles
Clouds Clear
Dew Point -6 °F
Humidity 82%
Rainfall 0.00 in
Snow Depth Not available.
UV 0 out of 12
Pollen .30 out of 12
Air Quality Not available.
Flu Activity Not available.
METAR KLWA 281215Z AUTO 00000KT 10SM CLR M19/M21 A3069 RMK AO2 T11871211

More Conditions Fewer Conditions

Pressure 30.69 in
Visibility 10.0 miles
Clouds Clear
Dew Point -6 °F
Humidity 82%
Rainfall 0.00 in
Snow Depth Not available.
UV 0 out of 12
Pollen .30 out of 12
Air Quality Not available.
Flu Activity Not available.
METAR KLWA 281215Z AUTO 00000KT 10SM CLR M19/M21 A3069 RMK AO2 T11871211

More Conditions Fewer Conditions

10-Day Weather Forecast

Almanac

Astronomy

Feb. 28, 2015 Rise Set
Actual Time
Civil Twilight
Nautical Twilight
Astronomical Twilight
Moon
Length of Visible Light
Length of Day
Tomorrow will be .
, % of the Moon is Illuminated

Today's Extremes

State Highs State Lows

Community

WunderPhotos

Upload Photos

1,800,999 photos uploaded!

WunderBlogs® & News

Nearby

Air Quality

  Air Quality AQ Index Pollutant
Not available.

Snow Depth

Station Depth Elevation

Earthquake Activity

City Distance Mag. Time & Date
Minimum magnitude displayed is 2.5.

Coastal Water Temperatures

Place Temperature

Nearby Weather Stations